Time;durP1;ratioP1;P1;durP2;ratioP2;P2;SDS_P1;SDS_P2;PMS_P1;PMS_P2;Temp;Humidity;BMP_temperature;BMP_pressure;BME280_temperature;BME280_humidity;BME280_pressure;Samples;Min_cycle;Max_cycle;Signal;HPM_P1;HPM_P2
2023/11/17 00:00:38;;;;;;;29.33;12.80;;;8.20;1.00;;;;;;4906502;29;20203;-85
2023/11/17 00:03:03;;;;;;;20.20;12.87;;;8.10;1.00;;;;;;4918942;29;20191;-86
2023/11/17 00:05:30;;;;;;;14.43;11.40;;;8.10;1.00;;;;;;4911973;29;20753;-85
2023/11/17 00:07:56;;;;;;;21.87;13.17;;;8.10;1.00;;;;;;4919218;29;20214;-85
2023/11/17 00:10:21;;;;;;;25.57;12.97;;;8.00;1.00;;;;;;4909281;29;20837;-85
2023/11/17 00:12:47;;;;;;;17.43;12.63;;;8.00;1.00;;;;;;4913558;29;20624;-85
2023/11/17 00:15:12;;;;;;;17.20;12.27;;;7.90;1.00;;;;;;4920962;29;20235;-85
2023/11/17 00:17:38;;;;;;;22.70;13.90;;;7.80;1.00;;;;;;4913288;29;20190;-86
2023/11/17 00:20:04;;;;;;;22.10;13.93;;;7.80;1.00;;;;;;4920087;29;20238;-86
2023/11/17 00:22:29;;;;;;;18.90;12.50;;;7.80;1.00;;;;;;4909967;29;20191;-85
2023/11/17 00:24:55;;;;;;;29.73;14.90;;;7.80;1.00;;;;;;4901265;29;20527;-85
2023/11/17 00:27:20;;;;;;;23.17;14.97;;;7.80;1.00;;;;;;4916720;29;20202;-85
2023/11/17 00:29:48;;;;;;;24.27;14.10;;;7.80;1.00;;;;;;4912002;29;20211;-86
2023/11/17 00:32:14;;;;;;;19.52;13.10;;;7.70;1.00;;;;;;4915881;29;20796;-86
2023/11/17 00:34:40;;;;;;;25.60;13.37;;;7.80;1.00;;;;;;4913501;29;20289;-85
2023/11/17 00:37:07;;;;;;;17.60;12.40;;;7.70;1.00;;;;;;4914521;29;20447;-85
2023/11/17 00:39:34;;;;;;;21.80;14.55;;;7.70;1.00;;;;;;4919954;29;20281;-85
2023/11/17 00:41:59;;;;;;;22.63;14.05;;;7.70;1.00;;;;;;4913974;29;20191;-85
2023/11/17 00:44:25;;;;;;;17.60;12.57;;;7.70;1.00;;;;;;4913105;29;20196;-86
2023/11/17 00:46:50;;;;;;;23.20;14.90;;;7.70;1.00;;;;;;4908924;29;20679;-85
2023/11/17 00:49:16;;;;;;;27.37;13.93;;;7.70;1.00;;;;;;4911913;29;20821;-86
2023/11/17 00:51:41;;;;;;;21.50;13.30;;;7.60;1.00;;;;;;4905661;29;20757;-85
2023/11/17 00:54:07;;;;;;;26.63;13.80;;;7.60;1.00;;;;;;4918594;29;20663;-86
2023/11/17 00:56:33;;;;;;;21.80;13.73;;;7.60;1.00;;;;;;4911275;29;20241;-85
2023/11/17 00:58:59;;;;;;;20.42;13.43;;;7.60;1.00;;;;;;4913360;29;20264;-85
2023/11/17 01:01:24;;;;;;;24.20;14.33;;;7.60;1.00;;;;;;4910419;29;20188;-85
2023/11/17 01:03:50;;;;;;;27.63;14.90;;;7.50;1.00;;;;;;4913475;29;20826;-85
2023/11/17 01:06:16;;;;;;;28.20;17.20;;;7.60;1.00;;;;;;4916165;29;20246;-86
2023/11/17 01:08:42;;;;;;;30.73;16.80;;;7.50;1.00;;;;;;4916950;29;20447;-86
2023/11/17 01:11:11;;;;;;;22.53;15.67;;;7.50;1.00;;;;;;4914381;29;20467;-85
2023/11/17 01:13:38;;;;;;;28.85;17.90;;;7.40;1.00;;;;;;4912159;29;20182;-85
2023/11/17 01:16:03;;;;;;;34.30;17.52;;;7.40;1.00;;;;;;4909865;29;20217;-85
2023/11/17 01:18:29;;;;;;;25.53;16.67;;;7.40;1.00;;;;;;4910009;29;20182;-85
2023/11/17 01:20:55;;;;;;;27.07;17.27;;;7.30;1.00;;;;;;4908409;29;20561;-84
2023/11/17 01:23:23;;;;;;;21.20;16.30;;;7.30;1.00;;;;;;4918280;29;20183;-86
2023/11/17 01:25:48;;;;;;;27.05;16.80;;;7.20;1.00;;;;;;4916348;29;20178;-86
2023/11/17 01:28:14;;;;;;;32.83;17.60;;;7.20;1.00;;;;;;4913493;29;20183;-87
2023/11/17 01:30:39;;;;;;;33.23;18.27;;;7.10;1.00;;;;;;4915023;29;20226;-88
2023/11/17 01:33:05;;;;;;;34.90;19.47;;;7.10;1.00;;;;;;4908412;29;20203;-86
2023/11/17 01:35:31;;;;;;;32.20;18.38;;;7.10;1.00;;;;;;4924031;29;20207;-87
2023/11/17 01:37:57;;;;;;;27.50;17.53;;;7.10;1.00;;;;;;4923099;29;20323;-86
2023/11/17 01:40:22;;;;;;;32.87;17.70;;;7.10;1.00;;;;;;4924373;29;20641;-87
2023/11/17 01:42:48;;;;;;;33.60;19.07;;;7.10;1.00;;;;;;4919731;29;20657;-85
2023/11/17 01:45:14;;;;;;;32.73;18.20;;;7.10;1.00;;;;;;4906829;29;20201;-87
2023/11/17 01:47:42;;;;;;;36.25;19.00;;;7.10;1.00;;;;;;4915988;29;20446;-87
2023/11/17 01:50:11;;;;;;;31.58;18.65;;;7.10;1.00;;;;;;4907304;29;20233;-85
2023/11/17 01:52:42;;;;;;;40.33;19.42;;;7.10;1.00;;;;;;4915436;29;20624;-85
2023/11/17 01:55:09;;;;;;;38.00;20.33;;;7.10;1.00;;;;;;4916874;29;20211;-86
2023/11/17 01:57:38;;;;;;;47.33;19.80;;;7.20;1.00;;;;;;4914004;29;20210;-84
2023/11/17 02:00:08;;;;;;;38.83;17.85;;;7.20;1.00;;;;;;4914193;29;20211;-86
2023/11/17 02:02:35;;;;;;;42.58;18.90;;;7.20;1.00;;;;;;4919975;29;20183;-87
2023/11/17 02:05:04;;;;;;;35.72;17.05;;;7.10;1.00;;;;;;4921197;29;20269;-86
2023/11/17 02:07:42;;;;;;;47.85;18.85;;;7.10;1.00;;;;;;4912981;29;20194;-86
2023/11/17 02:10:35;;;;;;;47.72;18.60;;;7.10;1.00;;;;;;4918332;29;20206;-84
2023/11/17 02:13:14;;;;;;;43.00;20.23;;;7.10;1.00;;;;;;4906881;29;20749;-84
2023/11/17 02:15:41;;;;;;;43.13;18.75;;;7.10;1.00;;;;;;4914724;29;20344;-86
2023/11/17 02:18:13;;;;;;;54.35;21.77;;;7.10;1.00;;;;;;4912975;29;20279;-85
2023/11/17 02:20:41;;;;;;;104.80;19.48;;;7.00;1.00;;;;;;4913469;29;20249;-85
2023/11/17 02:23:15;;;;;;;83.22;21.70;;;7.00;1.00;;;;;;4909866;29;20363;-85
2023/11/17 02:25:48;;;;;;;59.03;22.90;;;7.00;1.00;;;;;;4905530;29;20199;-85
2023/11/17 02:28:37;;;;;;;67.00;22.80;;;7.00;1.00;;;;;;4910955;29;20195;-87
2023/11/17 02:31:15;;;;;;;65.65;20.95;;;7.10;1.00;;;;;;4911200;29;20716;-85
2023/11/17 02:33:44;;;;;;;100.10;24.30;;;7.00;1.00;;;;;;4915056;29;20613;-86
2023/11/17 02:36:17;;;;;;;76.55;22.67;;;7.00;1.00;;;;;;4920742;29;20218;-88
2023/11/17 02:39:05;;;;;;;89.75;25.77;;;7.00;1.00;;;;;;4911850;29;20182;-85
2023/11/17 02:41:37;;;;;;;82.25;25.05;;;7.00;1.00;;;;;;4914415;29;20179;-85
2023/11/17 02:44:03;;;;;;;67.60;25.77;;;7.00;1.00;;;;;;4913365;29;20239;-86
2023/11/17 02:46:32;;;;;;;72.43;24.70;;;7.00;1.00;;;;;;4913503;29;21221;-86
2023/11/17 02:49:03;;;;;;;79.75;22.58;;;7.00;1.00;;;;;;4910298;29;20191;-84
2023/11/17 02:51:37;;;;;;;95.25;23.83;;;7.00;1.00;;;;;;4911352;29;20215;-84
2023/11/17 02:54:08;;;;;;;88.97;25.73;;;7.00;1.00;;;;;;4910827;29;20210;-85
2023/11/17 02:56:39;;;;;;;77.97;23.83;;;7.00;1.00;;;;;;4906784;29;20302;-86
2023/11/17 02:59:10;;;;;;;116.13;23.42;;;7.00;1.00;;;;;;4912866;29;20295;-86
2023/11/17 03:01:38;;;;;;;85.10;22.17;;;7.00;1.00;;;;;;4913935;29;20183;-85
2023/11/17 03:04:13;;;;;;;105.97;23.52;;;7.00;1.00;;;;;;4904444;29;20319;-85
2023/11/17 03:06:49;;;;;;;88.50;23.75;;;7.00;1.00;;;;;;4910582;29;20612;-84
2023/11/17 03:09:16;;;;;;;106.55;25.35;;;6.90;1.00;;;;;;4908499;29;20222;-85
2023/11/17 03:11:46;;;;;;;115.63;27.50;;;6.90;1.00;;;;;;4924475;29;20210;-86
2023/11/17 03:14:11;;;;;;;106.30;27.35;;;7.00;1.00;;;;;;4906989;29;20589;-85
2023/11/17 03:16:37;;;;;;;92.57;29.13;;;7.00;1.00;;;;;;4903188;29;20227;-85
2023/11/17 03:19:10;;;;;;;76.33;28.27;;;7.00;1.00;;;;;;4917145;29;20708;-84
2023/11/17 03:21:41;;;;;;;93.60;31.00;;;7.00;1.00;;;;;;4918086;29;20338;-85
2023/11/17 03:24:14;;;;;;;112.60;36.40;;;7.00;1.00;;;;;;4907255;29;20188;-86
2023/11/17 03:26:44;;;;;;;79.20;35.08;;;7.00;1.00;;;;;;4918707;29;20277;-85
2023/11/17 03:29:14;;;;;;;130.30;38.60;;;7.00;1.00;;;;;;4912524;29;20213;-86
2023/11/17 03:31:49;;;;;;;119.53;40.40;;;7.10;1.00;;;;;;4908709;29;20199;-88
2023/11/17 03:34:23;;;;;;;97.05;37.50;;;7.10;1.00;;;;;;4929241;29;20221;-84
2023/11/17 03:36:57;;;;;;;109.70;36.20;;;7.10;1.00;;;;;;4922598;29;20187;-85
2023/11/17 03:39:27;;;;;;;109.50;31.85;;;7.10;1.00;;;;;;4932285;29;20209;-86
2023/11/17 03:41:53;;;;;;;88.25;33.47;;;7.10;1.00;;;;;;4911746;29;20242;-85
2023/11/17 03:44:23;;;;;;;84.68;32.38;;;7.10;1.00;;;;;;4925562;29;20274;-87
2023/11/17 03:46:50;;;;;;;77.65;29.55;;;7.10;1.00;;;;;;4916746;29;20815;-87
2023/11/17 03:49:15;;;;;;;79.50;26.80;;;7.10;1.00;;;;;;4914496;29;20206;-86
2023/11/17 03:51:42;;;;;;;66.30;26.60;;;7.20;1.00;;;;;;4913885;29;20195;-85
2023/11/17 03:54:09;;;;;;;61.17;26.98;;;7.10;1.00;;;;;;4915291;29;20190;-87
2023/11/17 03:56:35;;;;;;;47.80;24.25;;;7.10;1.00;;;;;;4917036;29;20210;-89
2023/11/17 03:59:03;;;;;;;48.13;25.97;;;7.10;1.00;;;;;;4914575;29;20578;-88
2023/11/17 04:01:29;;;;;;;49.05;25.95;;;7.10;1.00;;;;;;4922928;29;20207;-87
2023/11/17 04:03:55;;;;;;;47.47;25.33;;;7.10;1.00;;;;;;4924976;29;20193;-87
2023/11/17 04:06:20;;;;;;;49.60;25.80;;;7.20;1.00;;;;;;4917406;29;20255;-86
2023/11/17 04:08:47;;;;;;;48.07;24.73;;;7.20;1.00;;;;;;4913625;29;20473;-86
2023/11/17 04:11:15;;;;;;;50.75;26.50;;;7.30;1.00;;;;;;4913201;29;20220;-88
2023/11/17 04:13:44;;;;;;;59.83;25.92;;;7.20;1.00;;;;;;4914401;29;20188;-86
2023/11/17 04:16:10;;;;;;;54.03;27.15;;;7.30;1.00;;;;;;4922760;29;20247;-87
2023/11/17 04:18:38;;;;;;;57.00;29.42;;;7.20;1.00;;;;;;4920742;29;20195;-87
2023/11/17 04:21:05;;;;;;;51.92;29.65;;;7.20;1.00;;;;;;4929892;29;20211;-88
2023/11/17 04:23:30;;;;;;;53.63;27.63;;;7.30;1.00;;;;;;4927382;29;20209;-87
2023/11/17 04:25:56;;;;;;;56.17;28.53;;;7.20;1.00;;;;;;4918313;29;20197;-87
2023/11/17 04:28:21;;;;;;;50.17;27.20;;;7.30;1.00;;;;;;4923129;29;20187;-86
2023/11/17 04:30:47;;;;;;;42.90;24.87;;;7.30;1.00;;;;;;4919794;29;20242;-86
2023/11/17 04:33:14;;;;;;;42.90;25.33;;;7.30;1.00;;;;;;4926893;29;20191;-86
2023/11/17 04:35:39;;;;;;;44.88;25.98;;;7.30;1.00;;;;;;4928374;29;20266;-85
2023/11/17 04:38:05;;;;;;;49.50;25.90;;;7.30;1.00;;;;;;4920803;29;21766;-86
2023/11/17 04:40:32;;;;;;;42.60;24.27;;;7.30;1.00;;;;;;4923607;29;20203;-87
2023/11/17 04:42:57;;;;;;;46.70;25.73;;;7.30;1.00;;;;;;4916919;29;20207;-86
2023/11/17 04:45:25;;;;;;;49.00;24.77;;;7.20;1.00;;;;;;4919145;29;20202;-88
2023/11/17 04:47:51;;;;;;;41.67;24.67;;;7.20;1.00;;;;;;4917896;29;20195;-87
2023/11/17 04:50:17;;;;;;;41.88;24.25;;;7.20;1.00;;;;;;4919014;29;20686;-87
2023/11/17 04:52:43;;;;;;;43.63;23.63;;;7.20;1.00;;;;;;4919677;29;20198;-85
2023/11/17 04:55:13;;;;;;;38.97;24.35;;;7.30;1.00;;;;;;4918732;29;20214;-87
2023/11/17 04:57:39;;;;;;;48.08;26.60;;;7.30;1.00;;;;;;4926724;29;20190;-88
2023/11/17 05:00:06;;;;;;;44.05;24.15;;;7.30;1.00;;;;;;4919139;29;20199;-87
2023/11/17 05:02:33;;;;;;;46.85;24.45;;;7.30;1.00;;;;;;4915723;29;20662;-88
2023/11/17 05:04:59;;;;;;;52.55;26.17;;;7.30;1.00;;;;;;4923595;29;20250;-88
2023/11/17 05:07:24;;;;;;;53.65;25.58;;;7.30;1.00;;;;;;4923238;29;20215;-85
2023/11/17 05:09:50;;;;;;;47.10;26.47;;;7.30;1.00;;;;;;4912089;29;20273;-85
2023/11/17 05:12:16;;;;;;;49.27;26.60;;;7.40;1.00;;;;;;4915532;29;20180;-85
2023/11/17 05:14:41;;;;;;;47.37;27.30;;;7.40;1.00;;;;;;4909567;29;20191;-85
2023/11/17 05:17:09;;;;;;;45.80;26.67;;;7.40;1.00;;;;;;4908114;29;20186;-85
2023/11/17 05:19:37;;;;;;;48.03;26.65;;;7.30;1.00;;;;;;4911898;29;20692;-85
2023/11/17 05:22:03;;;;;;;60.67;31.02;;;7.20;1.00;;;;;;4915816;29;20187;-85
2023/11/17 05:24:30;;;;;;;52.47;26.35;;;7.20;1.00;;;;;;4919726;29;20662;-85
2023/11/17 05:26:56;;;;;;;55.40;28.60;;;7.10;1.00;;;;;;4918438;29;20680;-87
2023/11/17 05:29:22;;;;;;;48.90;28.37;;;7.10;1.00;;;;;;4907627;29;20204;-85
2023/11/17 05:31:47;;;;;;;67.27;30.80;;;7.00;1.00;;;;;;4909107;29;20179;-85
2023/11/17 05:34:13;;;;;;;64.57;30.00;;;7.00;1.00;;;;;;4915729;29;20190;-88
2023/11/17 05:36:39;;;;;;;64.77;31.20;;;7.00;1.00;;;;;;4910109;29;20215;-86
2023/11/17 05:39:06;;;;;;;70.38;31.75;;;6.90;1.00;;;;;;4901873;29;20193;-85
2023/11/17 05:41:31;;;;;;;58.33;28.80;;;6.90;1.00;;;;;;4912491;29;20519;-85
2023/11/17 05:43:57;;;;;;;62.67;32.70;;;6.90;1.00;;;;;;4911390;29;20191;-86
2023/11/17 05:46:24;;;;;;;57.30;30.10;;;7.00;1.00;;;;;;4909829;29;20202;-85
2023/11/17 05:48:50;;;;;;;63.17;31.10;;;7.00;1.00;;;;;;4901411;29;20194;-85
2023/11/17 05:51:16;;;;;;;60.05;30.48;;;7.00;1.00;;;;;;4905154;29;20210;-85
2023/11/17 05:53:43;;;;;;;61.72;30.10;;;7.10;1.00;;;;;;4907178;29;20255;-85
2023/11/17 05:56:11;;;;;;;57.42;30.10;;;7.10;1.00;;;;;;4911747;29;20229;-85
2023/11/17 05:58:37;;;;;;;58.00;29.98;;;7.10;1.00;;;;;;4914550;29;20227;-86
2023/11/17 06:01:03;;;;;;;58.58;29.70;;;7.10;1.00;;;;;;4905916;29;20210;-85
2023/11/17 06:03:29;;;;;;;57.80;30.20;;;7.10;1.00;;;;;;4927768;29;20665;-86
2023/11/17 06:05:55;;;;;;;60.77;30.43;;;7.20;1.00;;;;;;4909616;29;20916;-87
2023/11/17 06:08:21;;;;;;;57.95;31.00;;;7.20;1.00;;;;;;4908088;29;20579;-86
2023/11/17 06:10:47;;;;;;;63.17;35.00;;;7.20;1.00;;;;;;4907498;29;20212;-85
2023/11/17 06:13:15;;;;;;;54.00;29.63;;;7.20;1.00;;;;;;4908498;29;20205;-85
2023/11/17 06:15:41;;;;;;;57.97;30.63;;;7.20;1.00;;;;;;4911951;29;20210;-86
2023/11/17 06:18:07;;;;;;;122.53;56.33;;;7.20;1.00;;;;;;4915303;29;20191;-85
2023/11/17 06:20:33;;;;;;;62.90;33.50;;;7.20;1.00;;;;;;4914937;29;20262;-85
2023/11/17 06:22:59;;;;;;;60.28;32.85;;;7.20;1.00;;;;;;4909784;29;20186;-85
2023/11/17 06:25:25;;;;;;;67.00;32.87;;;7.00;1.00;;;;;;4909072;29;20187;-85
2023/11/17 06:27:51;;;;;;;65.25;32.30;;;7.00;1.00;;;;;;4911984;29;20274;-88
2023/11/17 06:30:17;;;;;;;81.00;42.90;;;6.90;1.00;;;;;;4912147;29;20254;-85
2023/11/17 06:32:43;;;;;;;59.72;31.90;;;6.90;1.00;;;;;;4914996;29;20525;-85
2023/11/17 06:35:09;;;;;;;54.83;31.63;;;6.90;1.00;;;;;;4911715;29;20671;-84
2023/11/17 06:37:34;;;;;;;64.20;36.03;;;6.90;1.00;;;;;;4913480;29;20179;-86
2023/11/17 06:40:00;;;;;;;60.67;30.13;;;6.90;1.00;;;;;;4916759;29;20232;-86
2023/11/17 06:42:27;;;;;;;67.90;31.27;;;6.90;1.00;;;;;;4931765;29;20496;-86
2023/11/17 06:44:52;;;;;;;55.00;29.73;;;7.00;1.00;;;;;;4923788;29;20207;-86
2023/11/17 06:47:18;;;;;;;60.00;30.33;;;7.00;1.00;;;;;;4911128;29;20226;-86
2023/11/17 06:49:43;;;;;;;60.47;31.20;;;7.00;1.00;;;;;;4911770;29;20215;-86
2023/11/17 06:52:09;;;;;;;65.77;33.70;;;7.00;1.00;;;;;;4917398;29;20685;-87
2023/11/17 06:54:35;;;;;;;68.03;33.67;;;7.00;1.00;;;;;;4911100;29;20234;-86
2023/11/17 06:57:01;;;;;;;69.53;35.00;;;7.00;1.00;;;;;;4917678;29;20186;-87
2023/11/17 06:59:26;;;;;;;66.10;30.83;;;7.00;1.00;;;;;;4910372;29;20267;-87
2023/11/17 07:01:52;;;;;;;76.07;34.13;;;7.00;1.00;;;;;;4907041;29;20266;-84
2023/11/17 07:04:19;;;;;;;68.67;31.80;;;7.00;1.00;;;;;;4912822;29;20211;-84
2023/11/17 07:06:45;;;;;;;71.55;34.90;;;7.00;1.00;;;;;;4918884;29;20439;-87
2023/11/17 07:09:19;;;;;;;78.80;33.85;;;7.10;1.00;;;;;;4917261;29;20677;-83
2023/11/17 07:11:54;;;;;;;75.10;32.45;;;7.20;1.00;;;;;;4922258;29;20622;-87
2023/11/17 07:14:20;;;;;;;68.82;34.30;;;7.30;1.00;;;;;;4917308;29;20214;-86
2023/11/17 07:16:49;;;;;;;73.60;32.60;;;7.20;1.00;;;;;;4914319;29;20213;-86
2023/11/17 07:19:19;;;;;;;76.03;34.47;;;7.30;1.00;;;;;;4910012;29;20220;-86
2023/11/17 07:21:49;;;;;;;65.45;32.65;;;7.30;1.00;;;;;;4905307;29;20183;-86
2023/11/17 07:24:16;;;;;;;69.38;33.05;;;7.30;1.00;;;;;;4913314;29;20187;-87
2023/11/17 07:26:44;;;;;;;73.72;34.25;;;7.30;1.00;;;;;;4918465;29;20199;-86
2023/11/17 07:29:13;;;;;;;77.93;34.08;;;7.30;1.00;;;;;;4919485;29;20218;-85
2023/11/17 07:31:42;;;;;;;77.95;34.95;;;7.30;1.00;;;;;;4917957;29;20199;-85
2023/11/17 07:34:08;;;;;;;74.72;34.17;;;7.30;1.00;;;;;;4914027;29;20567;-86
2023/11/17 07:36:39;;;;;;;73.83;36.43;;;7.40;1.00;;;;;;4911933;29;20237;-86
2023/11/17 07:39:06;;;;;;;81.65;37.42;;;7.40;1.00;;;;;;4914869;29;20283;-85
2023/11/17 07:41:33;;;;;;;87.60;40.45;;;7.40;1.00;;;;;;4912974;29;20191;-87
2023/11/17 07:43:59;;;;;;;85.55;42.63;;;7.40;1.00;;;;;;4910381;29;20207;-87
2023/11/17 07:46:25;;;;;;;81.63;38.63;;;7.50;1.00;;;;;;4927307;29;20658;-84
2023/11/17 07:48:51;;;;;;;81.20;40.03;;;7.50;1.00;;;;;;4919993;29;20195;-85
2023/11/17 07:51:17;;;;;;;77.13;36.90;;;7.60;1.00;;;;;;4914083;29;20215;-84
2023/11/17 07:53:43;;;;;;;74.57;34.57;;;7.50;1.00;;;;;;4921366;29;20183;-87
2023/11/17 07:56:09;;;;;;;68.38;35.67;;;7.60;1.00;;;;;;4912178;29;20313;-85
2023/11/17 07:58:36;;;;;;;70.45;38.35;;;7.70;1.00;;;;;;4918748;29;20182;-86
2023/11/17 08:01:03;;;;;;;87.35;39.33;;;7.80;1.00;;;;;;4908099;29;20810;-86
2023/11/17 08:03:29;;;;;;;78.25;39.90;;;7.80;1.00;;;;;;4916572;29;20183;-87
2023/11/17 08:05:56;;;;;;;116.32;58.83;;;7.80;1.00;;;;;;4922663;29;20654;-87
2023/11/17 08:08:22;;;;;;;85.07;46.25;;;7.80;1.00;;;;;;4915924;29;20661;-85
2023/11/17 08:10:48;;;;;;;66.77;33.63;;;7.80;1.00;;;;;;4921407;29;20286;-85
2023/11/17 08:13:15;;;;;;;71.10;38.20;;;7.90;1.00;;;;;;4919638;29;20194;-84
2023/11/17 08:15:41;;;;;;;63.63;33.83;;;8.00;1.00;;;;;;4909509;29;20478;-84
2023/11/17 08:18:08;;;;;;;67.65;34.40;;;8.00;1.00;;;;;;4919274;29;20505;-85
2023/11/17 08:20:38;;;;;;;65.80;33.10;;;8.00;1.00;;;;;;4916666;29;20689;-84
2023/11/17 08:23:04;;;;;;;63.42;31.02;;;8.00;1.00;;;;;;4919417;29;20182;-84
2023/11/17 08:25:33;;;;;;;59.10;32.03;;;8.00;1.00;;;;;;4915674;29;20205;-86
2023/11/17 08:27:58;;;;;;;67.82;33.53;;;7.90;1.00;;;;;;4916118;29;20449;-84
2023/11/17 08:30:24;;;;;;;63.77;33.27;;;7.80;1.00;;;;;;4906216;29;20223;-85
2023/11/17 08:32:50;;;;;;;75.40;35.42;;;7.80;1.00;;;;;;4912551;29;20189;-85
2023/11/17 08:35:15;;;;;;;71.17;34.90;;;7.80;1.00;;;;;;4903977;29;20262;-84
2023/11/17 08:37:41;;;;;;;69.53;33.73;;;7.70;1.00;;;;;;4900127;29;20187;-84
2023/11/17 08:40:10;;;;;;;71.50;34.97;;;7.70;1.00;;;;;;4905802;29;20254;-84
2023/11/17 08:42:37;;;;;;;78.63;36.78;;;7.70;1.00;;;;;;4900291;29;20420;-85
2023/11/17 08:45:07;;;;;;;79.43;32.65;;;7.60;1.00;;;;;;4918702;29;20199;-86
2023/11/17 08:47:35;;;;;;;68.72;35.28;;;7.70;1.00;;;;;;4914085;29;20274;-85
2023/11/17 08:50:02;;;;;;;69.57;33.00;;;7.60;1.00;;;;;;4914665;29;20214;-85
2023/11/17 08:52:33;;;;;;;71.53;32.72;;;7.60;1.00;;;;;;4919945;29;20183;-84
2023/11/17 08:54:58;;;;;;;69.72;35.08;;;7.70;1.00;;;;;;4910490;29;20602;-86
2023/11/17 08:57:25;;;;;;;82.13;34.73;;;7.70;1.00;;;;;;4913996;29;20201;-85
2023/11/17 08:59:50;;;;;;;82.05;33.78;;;7.70;1.00;;;;;;4912653;29;20246;-84
2023/11/17 09:02:16;;;;;;;80.77;36.10;;;7.70;1.00;;;;;;4914186;29;20187;-85
2023/11/17 09:04:43;;;;;;;77.77;34.80;;;7.70;1.00;;;;;;4915391;29;20183;-84
2023/11/17 09:07:09;;;;;;;79.10;37.05;;;7.70;1.00;;;;;;4912482;29;20186;-84
2023/11/17 09:09:36;;;;;;;85.30;41.58;;;7.60;1.00;;;;;;4917068;29;20378;-85
2023/11/17 09:12:04;;;;;;;86.05;36.38;;;7.50;1.00;;;;;;4903207;29;20184;-84
2023/11/17 09:14:30;;;;;;;93.93;37.90;;;7.40;1.00;;;;;;4908034;29;20191;-84
2023/11/17 09:16:55;;;;;;;68.57;34.33;;;7.40;1.00;;;;;;4917197;29;20210;-84
2023/11/17 09:19:21;;;;;;;83.13;37.63;;;7.50;1.00;;;;;;4911650;29;20458;-84
2023/11/17 09:21:46;;;;;;;81.73;36.17;;;7.50;1.00;;;;;;4915847;29;20247;-85
2023/11/17 09:24:12;;;;;;;72.63;35.47;;;7.50;1.00;;;;;;4903915;29;20224;-84
2023/11/17 09:26:37;;;;;;;70.30;34.77;;;7.50;1.00;;;;;;4909976;29;20222;-84
2023/11/17 09:29:03;;;;;;;72.70;35.40;;;7.60;1.00;;;;;;4914818;29;20191;-84
2023/11/17 09:31:29;;;;;;;66.63;34.00;;;7.60;1.00;;;;;;4904055;29;20214;-86
2023/11/17 09:33:54;;;;;;;74.80;34.73;;;7.60;1.00;;;;;;4913200;29;20249;-84
2023/11/17 09:36:20;;;;;;;73.77;33.70;;;7.60;1.00;;;;;;4914644;29;20229;-87
2023/11/17 09:38:45;;;;;;;81.00;34.87;;;7.60;1.00;;;;;;4910970;29;20183;-84
2023/11/17 09:41:13;;;;;;;73.67;35.37;;;7.70;1.00;;;;;;4925996;29;20206;-84
2023/11/17 09:43:43;;;;;;;69.22;32.38;;;7.70;1.00;;;;;;4922686;29;20187;-86
2023/11/17 09:46:10;;;;;;;71.20;35.80;;;7.80;1.00;;;;;;4923063;29;20213;-85
2023/11/17 09:48:38;;;;;;;75.63;34.83;;;7.80;1.00;;;;;;4914816;29;20191;-88
2023/11/17 09:51:07;;;;;;;83.97;35.47;;;7.80;1.00;;;;;;4910364;29;20206;-84
2023/11/17 09:53:35;;;;;;;71.67;35.37;;;7.90;1.00;;;;;;4907261;29;20458;-84
2023/11/17 09:56:05;;;;;;;78.27;32.30;;;7.90;1.00;;;;;;4908037;29;20494;-86
2023/11/17 09:58:32;;;;;;;77.57;34.90;;;8.00;1.00;;;;;;4913921;29;20473;-85
2023/11/17 10:00:59;;;;;;;71.63;33.80;;;8.00;1.00;;;;;;4918930;29;20465;-84
2023/11/17 10:03:27;;;;;;;71.90;33.90;;;8.00;1.00;;;;;;4912471;29;20440;-86
2023/11/17 10:05:57;;;;;;;73.97;32.80;;;8.10;1.00;;;;;;4911960;29;20515;-85
2023/11/17 10:08:24;;;;;;;75.50;35.17;;;8.10;1.00;;;;;;4911687;29;20518;-85
2023/11/17 10:10:50;;;;;;;67.97;32.67;;;8.10;1.00;;;;;;4905705;29;20457;-86
2023/11/17 10:13:18;;;;;;;61.83;31.70;;;8.10;1.00;;;;;;4913419;29;20458;-87
2023/11/17 10:15:50;;;;;;;66.40;34.17;;;8.20;1.00;;;;;;4915872;29;20222;-87
2023/11/17 10:18:26;;;;;;;73.18;34.13;;;8.10;1.00;;;;;;4908186;29;20186;-86
2023/11/17 10:20:53;;;;;;;73.40;32.77;;;8.10;1.00;;;;;;4922499;29;20210;-86
2023/11/17 10:23:20;;;;;;;71.20;35.00;;;8.00;1.00;;;;;;4917732;29;20427;-86
2023/11/17 10:25:52;;;;;;;74.13;34.60;;;8.00;1.00;;;;;;4918555;29;20456;-87
2023/11/17 10:28:18;;;;;;;75.67;37.97;;;7.90;1.00;;;;;;4904553;29;21024;-85
2023/11/17 10:30:45;;;;;;;75.40;35.13;;;7.90;1.00;;;;;;4907277;29;20993;-86
2023/11/17 10:33:31;;;;;;;83.85;44.58;;;7.90;1.00;;;;;;4918628;29;20447;-86
2023/11/17 10:36:11;;;;;;;72.47;33.63;;;8.00;1.00;;;;;;4923761;29;20620;-86
2023/11/17 10:38:38;;;;;;;79.10;34.20;;;8.00;1.00;;;;;;4905323;29;20863;-86
2023/11/17 10:41:21;;;;;;;77.77;36.70;;;8.00;1.00;;;;;;4923153;29;20442;-87
2023/11/17 10:43:52;;;;;;;71.57;36.10;;;8.00;1.00;;;;;;4908506;29;20459;-87
2023/11/17 10:46:21;;;;;;;76.07;33.50;;;8.10;1.00;;;;;;4903212;29;20487;-88
2023/11/17 10:48:50;;;;;;;69.00;30.13;;;8.20;1.00;;;;;;4912215;29;21100;-85
2023/11/17 10:51:21;;;;;;;63.60;30.85;;;8.30;1.00;;;;;;4911149;29;20454;-86
2023/11/17 10:54:08;;;;;;;61.00;32.43;;;8.40;1.00;;;;;;4913852;29;20183;-85
2023/11/17 10:56:34;;;;;;;71.83;33.50;;;8.50;1.00;;;;;;4916164;29;20478;-86
2023/11/17 10:59:02;;;;;;;63.60;31.67;;;8.60;1.00;;;;;;4917501;29;20927;-87
2023/11/17 11:01:30;;;;;;;58.23;30.23;;;8.70;1.00;;;;;;4916260;29;20445;-88
2023/11/17 11:03:56;;;;;;;59.70;30.60;;;8.80;1.00;;;;;;4915276;29;20423;-87
2023/11/17 11:06:25;;;;;;;51.83;26.30;;;8.80;1.00;;;;;;4917264;29;20426;-89
2023/11/17 11:08:56;;;;;;;51.37;27.70;;;8.90;1.00;;;;;;4911856;29;20462;-86
2023/11/17 11:11:25;;;;;;;62.10;28.90;;;8.90;1.00;;;;;;4910670;29;20470;-85
2023/11/17 11:13:56;;;;;;;63.30;31.90;;;9.10;1.00;;;;;;4905839;29;20454;-85
2023/11/17 11:16:24;;;;;;;52.30;27.67;;;9.10;1.00;;;;;;4901094;29;20515;-85
2023/11/17 11:18:53;;;;;;;54.13;29.00;;;9.30;1.00;;;;;;4910352;29;20444;-85
2023/11/17 11:21:20;;;;;;;56.47;28.00;;;9.40;1.00;;;;;;4906710;29;20419;-87
2023/11/17 11:23:47;;;;;;;52.03;28.07;;;9.50;1.00;;;;;;4908793;29;20440;-85
2023/11/17 11:26:17;;;;;;;53.70;30.90;;;9.60;1.00;;;;;;4911974;29;20426;-85
2023/11/17 11:28:44;;;;;;;47.47;28.70;;;9.70;1.00;;;;;;4907378;29;20447;-86
2023/11/17 11:31:15;;;;;;;46.93;26.00;;;9.80;1.00;;;;;;4917983;29;20458;-85
2023/11/17 11:33:41;;;;;;;49.20;26.37;;;9.90;1.00;;;;;;4911907;29;20465;-88
2023/11/17 11:36:11;;;;;;;54.20;27.03;;;10.00;1.00;;;;;;4929257;29;20470;-86
2023/11/17 11:38:41;;;;;;;53.37;27.37;;;10.10;1.00;;;;;;4911654;29;20912;-85
2023/11/17 11:41:15;;;;;;;51.57;26.80;;;10.30;1.00;;;;;;4908562;29;20466;-85
2023/11/17 11:43:45;;;;;;;47.43;26.00;;;10.50;1.00;;;;;;4918803;29;20831;-85
2023/11/17 11:46:16;;;;;;;54.50;28.43;;;10.60;99.90;;;;;;4927718;29;20859;-86
2023/11/17 11:48:44;;;;;;;45.83;25.60;;;10.70;99.90;;;;;;4911871;29;20435;-86
2023/11/17 11:51:11;;;;;;;49.50;26.20;;;10.60;1.00;;;;;;4902826;29;20463;-86
2023/11/17 11:53:58;;;;;;;46.10;26.60;;;10.60;98.20;;;;;;4911060;29;20423;-86
2023/11/17 11:56:28;;;;;;;43.67;23.13;;;10.70;99.60;;;;;;4911695;29;20505;-86
2023/11/17 11:58:55;;;;;;;43.53;24.87;;;10.70;1.00;;;;;;4911859;29;20475;-87
2023/11/17 12:01:25;;;;;;;45.47;26.10;;;10.80;1.00;;;;;;4909490;29;20455;-86
2023/11/17 12:04:10;;;;;;;39.30;23.87;;;10.70;1.00;;;;;;4913003;29;20442;-86
2023/11/17 12:06:37;;;;;;;47.17;26.40;;;10.80;1.00;;;;;;4907828;29;20435;-85
2023/11/17 12:12:02;;;;;;;47.20;25.83;;;10.80;99.90;;;;;;4900974;29;20490;-86
2023/11/17 12:14:34;;;;;;;39.93;24.47;;;10.80;8.40;;;;;;4904439;29;20862;-85
2023/11/17 12:17:01;;;;;;;44.37;25.13;;;10.60;1.00;;;;;;4930100;29;20286;-87
2023/11/17 12:19:31;;;;;;;39.87;22.57;;;10.50;99.90;;;;;;4909967;29;20712;-84
2023/11/17 12:22:06;;;;;;;37.43;22.67;;;10.50;99.90;;;;;;4913311;29;20826;-85
2023/11/17 12:24:34;;;;;;;40.40;23.00;;;10.50;10.50;;;;;;4919636;29;20426;-86
2023/11/17 12:27:00;;;;;;;41.83;23.50;;;10.50;99.90;;;;;;4913000;29;20991;-83
2023/11/17 12:29:32;;;;;;;42.07;22.97;;;10.50;1.00;;;;;;4916910;29;20455;-85
2023/11/17 12:32:08;;;;;;;34.97;21.50;;;10.50;1.00;;;;;;4914853;29;21009;-85
2023/11/17 12:34:44;;;;;;;39.63;23.50;;;10.50;23.40;;;;;;4915685;29;20454;-85
2023/11/17 12:37:10;;;;;;;37.17;22.17;;;10.50;1.00;;;;;;4910030;29;20430;-89
2023/11/17 12:39:38;;;;;;;40.10;22.53;;;10.40;1.00;;;;;;4924516;29;20454;-86
2023/11/17 12:42:19;;;;;;;41.30;23.57;;;10.50;89.40;;;;;;4914130;29;20423;-86
2023/11/17 12:44:46;;;;;;;38.50;21.53;;;10.60;99.90;;;;;;4918207;29;20995;-85
2023/11/17 12:47:12;;;;;;;42.50;23.40;;;10.70;1.00;;;;;;4915527;29;20428;-86
2023/11/17 12:49:53;;;;;;;37.27;21.57;;;10.80;1.00;;;;;;4911835;29;20520;-86
2023/11/17 12:52:18;;;;;;;36.23;19.90;;;10.80;99.90;;;;;;4912371;29;20253;-86